sensor_id;sensor_type;location;lat;lon;timestamp;pressure;altitude;pressure_sealevel;temperature;humidity
85343;BME280;75760;31.390;34.904;2024-02-16T00:00:44;94637.88;;;11.52;69.82
85343;BME280;75760;31.390;34.904;2024-02-16T00:03:12;94642.31;;;11.55;69.46
85343;BME280;75760;31.390;34.904;2024-02-16T00:05:38;94635.47;;;11.54;68.86
85343;BME280;75760;31.390;34.904;2024-02-16T00:08:04;94635.78;;;11.56;69.71
85343;BME280;75760;31.390;34.904;2024-02-16T00:10:29;94628.38;;;11.51;70.16
85343;BME280;75760;31.390;34.904;2024-02-16T00:12:56;94636.69;;;11.53;69.84
85343;BME280;75760;31.390;34.904;2024-02-16T00:15:22;94640.72;;;11.48;70.17
85343;BME280;75760;31.390;34.904;2024-02-16T00:17:48;94630.88;;;11.54;69.42
85343;BME280;75760;31.390;34.904;2024-02-16T00:20:13;94626.75;;;11.44;71.38
85343;BME280;75760;31.390;34.904;2024-02-16T00:22:39;94635.56;;;11.36;71.46
85343;BME280;75760;31.390;34.904;2024-02-16T00:25:05;94632.28;;;11.41;70.81
85343;BME280;75760;31.390;34.904;2024-02-16T00:27:31;94628.69;;;11.44;70.45
85343;BME280;75760;31.390;34.904;2024-02-16T00:29:57;94622.16;;;11.45;70.11
85343;BME280;75760;31.390;34.904;2024-02-16T00:32:22;94631.81;;;11.51;69.75
85343;BME280;75760;31.390;34.904;2024-02-16T00:34:50;94630.88;;;11.54;69.04
85343;BME280;75760;31.390;34.904;2024-02-16T00:37:19;94626.59;;;11.48;69.73
85343;BME280;75760;31.390;34.904;2024-02-16T00:39:44;94622.34;;;11.41;69.66
85343;BME280;75760;31.390;34.904;2024-02-16T00:42:10;94622.16;;;11.45;69.37
85343;BME280;75760;31.390;34.904;2024-02-16T00:44:36;94626.03;;;11.44;69.34
85343;BME280;75760;31.390;34.904;2024-02-16T00:47:02;94629.91;;;11.43;69.20
85343;BME280;75760;31.390;34.904;2024-02-16T00:49:31;94625.00;;;11.41;68.97
85343;BME280;75760;31.390;34.904;2024-02-16T00:51:57;94625.91;;;11.38;69.09
85343;BME280;75760;31.390;34.904;2024-02-16T00:54:23;94634.06;;;11.35;68.87
85343;BME280;75760;31.390;34.904;2024-02-16T00:56:49;94636.75;;;11.35;68.83
85343;BME280;75760;31.390;34.904;2024-02-16T00:59:14;94632.88;;;11.36;68.38
85343;BME280;75760;31.390;34.904;2024-02-16T01:01:40;94644.50;;;11.33;68.70
85343;BME280;75760;31.390;34.904;2024-02-16T01:04:05;94639.59;;;11.31;68.66
85343;BME280;75760;31.390;34.904;2024-02-16T01:06:32;94640.91;;;11.36;67.70
85343;BME280;75760;31.390;34.904;2024-02-16T01:08:58;94646.84;;;11.40;67.41
85343;BME280;75760;31.390;34.904;2024-02-16T01:11:24;94639.19;;;11.24;67.84
85343;BME280;75760;31.390;34.904;2024-02-16T01:13:49;94643.63;;;11.18;68.27
85343;BME280;75760;31.390;34.904;2024-02-16T01:16:15;94657.91;;;11.14;68.11
85343;BME280;75760;31.390;34.904;2024-02-16T01:18:44;94653.47;;;11.02;69.00
85343;BME280;75760;31.390;34.904;2024-02-16T01:21:11;94663.56;;;10.89;70.61
85343;BME280;75760;31.390;34.904;2024-02-16T01:23:36;94669.34;;;10.88;71.63
85343;BME280;75760;31.390;34.904;2024-02-16T01:26:02;94664.50;;;10.59;75.38
85343;BME280;75760;31.390;34.904;2024-02-16T01:28:28;94666.59;;;10.64;76.68
85343;BME280;75760;31.390;34.904;2024-02-16T01:30:53;94661.25;;;10.64;77.72
85343;BME280;75760;31.390;34.904;2024-02-16T01:33:21;94660.50;;;10.54;77.71
85343;BME280;75760;31.390;34.904;2024-02-16T01:35:47;94663.91;;;10.55;77.10
85343;BME280;75760;31.390;34.904;2024-02-16T01:38:13;94656.06;;;10.42;78.07
85343;BME280;75760;31.390;34.904;2024-02-16T01:40:39;94663.75;;;10.31;78.69
85343;BME280;75760;31.390;34.904;2024-02-16T01:43:05;94666.72;;;10.33;78.47
85343;BME280;75760;31.390;34.904;2024-02-16T01:45:30;94664.50;;;10.40;78.30
85343;BME280;75760;31.390;34.904;2024-02-16T01:47:56;94665.25;;;10.41;77.46
85343;BME280;75760;31.390;34.904;2024-02-16T01:50:22;94663.47;;;10.38;76.89
85343;BME280;75760;31.390;34.904;2024-02-16T01:52:48;94669.81;;;10.31;77.23
85343;BME280;75760;31.390;34.904;2024-02-16T01:55:17;94673.41;;;10.28;77.89
85343;BME280;75760;31.390;34.904;2024-02-16T01:57:44;94675.47;;;10.24;78.05
85343;BME280;75760;31.390;34.904;2024-02-16T02:00:10;94675.59;;;10.30;77.83
85343;BME280;75760;31.390;34.904;2024-02-16T02:02:37;94667.47;;;10.33;77.36
85343;BME280;75760;31.390;34.904;2024-02-16T02:05:03;94677.81;;;10.31;78.12
85343;BME280;75760;31.390;34.904;2024-02-16T02:07:29;94676.66;;;10.32;78.00
85343;BME280;75760;31.390;34.904;2024-02-16T02:09:55;94674.59;;;10.27;77.85
85343;BME280;75760;31.390;34.904;2024-02-16T02:12:21;94682.56;;;10.27;77.41
85343;BME280;75760;31.390;34.904;2024-02-16T02:14:48;94684.03;;;10.19;77.52
85343;BME280;75760;31.390;34.904;2024-02-16T02:17:14;94688.66;;;10.28;76.88
85343;BME280;75760;31.390;34.904;2024-02-16T02:19:40;94686.69;;;10.19;76.82
85343;BME280;75760;31.390;34.904;2024-02-16T02:22:23;94688.47;;;10.22;77.52
85343;BME280;75760;31.390;34.904;2024-02-16T02:24:49;94692.59;;;10.14;77.33
85343;BME280;75760;31.390;34.904;2024-02-16T02:27:15;94688.72;;;10.06;76.96
85343;BME280;75760;31.390;34.904;2024-02-16T02:29:42;94701.19;;;10.09;77.28
85343;BME280;75760;31.390;34.904;2024-02-16T02:32:08;94690.47;;;10.00;77.02
85343;BME280;75760;31.390;34.904;2024-02-16T02:34:33;94701.19;;;10.09;77.30
85343;BME280;75760;31.390;34.904;2024-02-16T02:36:59;94697.59;;;10.03;77.92
85343;BME280;75760;31.390;34.904;2024-02-16T02:39:25;94697.44;;;9.88;77.60
85343;BME280;75760;31.390;34.904;2024-02-16T02:41:51;94699.78;;;9.86;78.00
85343;BME280;75760;31.390;34.904;2024-02-16T02:44:17;94688.56;;;10.00;77.83
85343;BME280;75760;31.390;34.904;2024-02-16T02:46:44;94690.81;;;10.11;77.01
85343;BME280;75760;31.390;34.904;2024-02-16T02:49:10;94691.91;;;10.23;77.42
85343;BME280;75760;31.390;34.904;2024-02-16T02:51:35;94697.84;;;10.27;77.59
85343;BME280;75760;31.390;34.904;2024-02-16T02:54:01;94693.81;;;10.31;77.77
85343;BME280;75760;31.390;34.904;2024-02-16T02:56:26;94697.09;;;10.35;77.25
85343;BME280;75760;31.390;34.904;2024-02-16T02:58:52;94689.41;;;10.28;76.74
85343;BME280;75760;31.390;34.904;2024-02-16T03:01:18;94698.84;;;10.29;76.11
85343;BME280;75760;31.390;34.904;2024-02-16T03:03:45;94704.34;;;10.26;76.42
85343;BME280;75760;31.390;34.904;2024-02-16T03:06:12;94709.09;;;10.31;76.96
85343;BME280;75760;31.390;34.904;2024-02-16T03:08:38;94709.69;;;10.26;76.82
85343;BME280;75760;31.390;34.904;2024-02-16T03:11:05;94707.97;;;10.01;76.68
85343;BME280;75760;31.390;34.904;2024-02-16T03:13:31;94698.66;;;10.05;77.08
85343;BME280;75760;31.390;34.904;2024-02-16T03:15:57;94707.09;;;10.13;77.11
85343;BME280;75760;31.390;34.904;2024-02-16T03:18:23;94701.03;;;10.13;77.48
85343;BME280;75760;31.390;34.904;2024-02-16T03:20:49;94704.75;;;10.15;77.47
85343;BME280;75760;31.390;34.904;2024-02-16T03:23:15;94707.59;;;10.21;77.02
85343;BME280;75760;31.390;34.904;2024-02-16T03:25:41;94716.91;;;10.16;77.40
85343;BME280;75760;31.390;34.904;2024-02-16T03:28:13;94723.97;;;10.10;78.41
85343;BME280;75760;31.390;34.904;2024-02-16T03:30:39;94724.44;;;10.09;78.18
85343;BME280;75760;31.390;34.904;2024-02-16T03:33:05;94728.72;;;10.15;78.50
85343;BME280;75760;31.390;34.904;2024-02-16T03:35:31;94728.41;;;10.04;78.34
85343;BME280;75760;31.390;34.904;2024-02-16T03:37:56;94732.41;;;9.99;79.08
85343;BME280;75760;31.390;34.904;2024-02-16T03:40:23;94739.34;;;9.97;78.95
85343;BME280;75760;31.390;34.904;2024-02-16T03:42:50;94736.72;;;10.06;77.81
85343;BME280;75760;31.390;34.904;2024-02-16T03:45:16;94735.97;;;10.05;77.54
85343;BME280;75760;31.390;34.904;2024-02-16T03:47:42;94727.34;;;10.01;77.28
85343;BME280;75760;31.390;34.904;2024-02-16T03:50:08;94735.78;;;10.00;76.81
85343;BME280;75760;31.390;34.904;2024-02-16T03:52:33;94727.47;;;9.80;76.71
85343;BME280;75760;31.390;34.904;2024-02-16T03:54:59;94729.53;;;9.85;76.67
85343;BME280;75760;31.390;34.904;2024-02-16T03:57:25;94726.16;;;9.93;76.12
85343;BME280;75760;31.390;34.904;2024-02-16T03:59:50;94731.66;;;9.99;75.60
85343;BME280;75760;31.390;34.904;2024-02-16T04:02:16;94734.34;;;9.99;75.74
85343;BME280;75760;31.390;34.904;2024-02-16T04:04:42;94735.78;;;10.00;75.34
85343;BME280;75760;31.390;34.904;2024-02-16T04:07:08;94737.88;;;10.05;74.93
85343;BME280;75760;31.390;34.904;2024-02-16T04:09:34;94736.28;;;10.08;75.11
85343;BME280;75760;31.390;34.904;2024-02-16T04:12:03;94742.00;;;9.88;75.42
85343;BME280;75760;31.390;34.904;2024-02-16T04:14:30;94741.84;;;9.91;75.28
85343;BME280;75760;31.390;34.904;2024-02-16T04:16:56;94743.94;;;9.96;75.69
85343;BME280;75760;31.390;34.904;2024-02-16T04:19:25;94754.28;;;9.94;74.97
85343;BME280;75760;31.390;34.904;2024-02-16T04:21:51;94759.16;;;9.87;75.41
85343;BME280;75760;31.390;34.904;2024-02-16T04:24:17;94763.78;;;9.64;76.43
85343;BME280;75760;31.390;34.904;2024-02-16T04:26:43;94763.97;;;9.70;76.30
85343;BME280;75760;31.390;34.904;2024-02-16T04:29:09;94762.66;;;9.75;75.95
85343;BME280;75760;31.390;34.904;2024-02-16T04:31:35;94768.31;;;9.86;75.86
85343;BME280;75760;31.390;34.904;2024-02-16T04:34:00;94764.38;;;9.99;75.31
85343;BME280;75760;31.390;34.904;2024-02-16T04:36:27;94769.91;;;10.14;75.29
85343;BME280;75760;31.390;34.904;2024-02-16T04:38:52;94767.59;;;10.25;74.14
85343;BME280;75760;31.390;34.904;2024-02-16T04:41:20;94772.34;;;10.30;73.63
85343;BME280;75760;31.390;34.904;2024-02-16T04:43:45;94772.34;;;10.39;73.21
85343;BME280;75760;31.390;34.904;2024-02-16T04:46:15;94759.44;;;10.29;73.46
85343;BME280;75760;31.390;34.904;2024-02-16T04:48:41;94764.81;;;10.38;73.26
85343;BME280;75760;31.390;34.904;2024-02-16T04:51:07;94766.75;;;10.47;72.63
85343;BME280;75760;31.390;34.904;2024-02-16T04:53:32;94773.41;;;10.42;71.87
85343;BME280;75760;31.390;34.904;2024-02-16T04:55:58;94777.56;;;10.43;71.99
85343;BME280;75760;31.390;34.904;2024-02-16T04:58:23;94775.75;;;10.31;71.63
85343;BME280;75760;31.390;34.904;2024-02-16T05:00:49;94781.53;;;10.38;71.35
85343;BME280;75760;31.390;34.904;2024-02-16T05:03:15;94777.84;;;10.45;70.54
85343;BME280;75760;31.390;34.904;2024-02-16T05:05:41;94780.94;;;10.34;71.18
85343;BME280;75760;31.390;34.904;2024-02-16T05:08:06;94785.06;;;10.26;70.97
85343;BME280;75760;31.390;34.904;2024-02-16T05:10:32;94795.16;;;10.31;71.38
85343;BME280;75760;31.390;34.904;2024-02-16T05:12:58;94795.78;;;10.45;71.19
85343;BME280;75760;31.390;34.904;2024-02-16T05:15:24;94797.53;;;10.38;70.99
85343;BME280;75760;31.390;34.904;2024-02-16T05:17:51;94802.88;;;10.48;71.08
85343;BME280;75760;31.390;34.904;2024-02-16T05:20:17;94798.44;;;10.45;71.05
85343;BME280;75760;31.390;34.904;2024-02-16T05:22:45;94802.16;;;10.38;70.88
85343;BME280;75760;31.390;34.904;2024-02-16T05:25:15;94798.00;;;10.46;71.02
85343;BME280;75760;31.390;34.904;2024-02-16T05:27:41;94800.84;;;10.52;70.38
85343;BME280;75760;31.390;34.904;2024-02-16T05:30:09;94809.13;;;10.45;70.62
85343;BME280;75760;31.390;34.904;2024-02-16T05:32:36;94809.09;;;10.35;71.34
85343;BME280;75760;31.390;34.904;2024-02-16T05:35:03;94813.72;;;10.44;71.26
85343;BME280;75760;31.390;34.904;2024-02-16T05:37:48;94817.59;;;10.61;70.86
85343;BME280;75760;31.390;34.904;2024-02-16T05:40:19;94827.97;;;10.59;70.89
85343;BME280;75760;31.390;34.904;2024-02-16T05:42:53;94830.38;;;10.75;70.52
85343;BME280;75760;31.390;34.904;2024-02-16T05:45:19;94837.91;;;10.68;70.60
85343;BME280;75760;31.390;34.904;2024-02-16T05:47:46;94845.00;;;10.53;71.52
85343;BME280;75760;31.390;34.904;2024-02-16T05:50:13;94839.03;;;10.49;71.84
85343;BME280;75760;31.390;34.904;2024-02-16T05:52:39;94838.47;;;10.54;71.81
85343;BME280;75760;31.390;34.904;2024-02-16T05:55:07;94845.75;;;10.62;71.84
85343;BME280;75760;31.390;34.904;2024-02-16T05:57:34;94835.56;;;10.79;71.28
85343;BME280;75760;31.390;34.904;2024-02-16T06:00:00;94844.34;;;11.43;68.17
85343;BME280;75760;31.390;34.904;2024-02-16T06:02:26;94843.88;;;11.81;66.90
85343;BME280;75760;31.390;34.904;2024-02-16T06:04:55;94847.44;;;11.60;68.79
85343;BME280;75760;31.390;34.904;2024-02-16T06:07:21;94847.28;;;11.54;68.81
85343;BME280;75760;31.390;34.904;2024-02-16T06:09:47;94858.88;;;11.51;68.73
85343;BME280;75760;31.390;34.904;2024-02-16T06:12:13;94857.09;;;11.48;69.00
85343;BME280;75760;31.390;34.904;2024-02-16T06:14:38;94864.03;;;11.64;68.47
85343;BME280;75760;31.390;34.904;2024-02-16T06:17:04;94863.47;;;11.78;69.28
85343;BME280;75760;31.390;34.904;2024-02-16T06:19:30;94868.19;;;11.93;68.83
85343;BME280;75760;31.390;34.904;2024-02-16T06:21:55;94871.47;;;11.87;68.33
85343;BME280;75760;31.390;34.904;2024-02-16T06:24:24;94870.19;;;12.58;65.95
85343;BME280;75760;31.390;34.904;2024-02-16T06:26:50;94869.09;;;12.32;67.03
85343;BME280;75760;31.390;34.904;2024-02-16T06:29:17;94872.47;;;12.08;67.90
85343;BME280;75760;31.390;34.904;2024-02-16T06:31:47;94875.50;;;12.67;65.95
85343;BME280;75760;31.390;34.904;2024-02-16T06:34:14;94872.88;;;12.82;65.36
85343;BME280;75760;31.390;34.904;2024-02-16T06:36:41;94868.00;;;13.04;63.35
85343;BME280;75760;31.390;34.904;2024-02-16T06:39:07;94865.53;;;12.68;65.21
85343;BME280;75760;31.390;34.904;2024-02-16T06:41:32;94870.38;;;13.02;63.00
85343;BME280;75760;31.390;34.904;2024-02-16T06:43:58;94876.41;;;13.89;61.14
85343;BME280;75760;31.390;34.904;2024-02-16T06:46:24;94881.31;;;14.34;59.79
85343;BME280;75760;31.390;34.904;2024-02-16T06:48:53;94875.00;;;14.87;57.31
85343;BME280;75760;31.390;34.904;2024-02-16T06:51:24;94879.13;;;15.03;56.77
85343;BME280;75760;31.390;34.904;2024-02-16T06:53:52;94881.09;;;14.67;58.19
85343;BME280;75760;31.390;34.904;2024-02-16T06:56:17;94887.63;;;14.02;59.73
85343;BME280;75760;31.390;34.904;2024-02-16T06:58:44;94887.50;;;14.55;57.80
85343;BME280;75760;31.390;34.904;2024-02-16T07:01:11;94876.97;;;15.07;56.58
85343;BME280;75760;31.390;34.904;2024-02-16T07:03:36;94892.41;;;14.57;57.84
85343;BME280;75760;31.390;34.904;2024-02-16T07:06:03;94891.41;;;15.09;56.28
85343;BME280;75760;31.390;34.904;2024-02-16T07:08:29;94899.56;;;15.15;56.72
85343;BME280;75760;31.390;34.904;2024-02-16T07:10:54;94896.47;;;14.37;58.74
85343;BME280;75760;31.390;34.904;2024-02-16T07:13:22;94898.97;;;14.56;56.72
85343;BME280;75760;31.390;34.904;2024-02-16T07:15:48;94898.00;;;15.49;55.23
85343;BME280;75760;31.390;34.904;2024-02-16T07:18:15;94904.16;;;16.53;52.62
85343;BME280;75760;31.390;34.904;2024-02-16T07:20:40;94908.34;;;16.91;52.15
85343;BME280;75760;31.390;34.904;2024-02-16T07:23:06;94908.69;;;15.43;55.48
85343;BME280;75760;31.390;34.904;2024-02-16T07:25:32;94915.38;;;14.93;56.92
85343;BME280;75760;31.390;34.904;2024-02-16T07:27:57;94914.56;;;14.87;56.71
85343;BME280;75760;31.390;34.904;2024-02-16T07:30:23;94912.97;;;14.95;54.98
85343;BME280;75760;31.390;34.904;2024-02-16T07:32:51;94921.53;;;14.78;55.88
85343;BME280;75760;31.390;34.904;2024-02-16T07:35:20;94918.06;;;15.94;53.26
85343;BME280;75760;31.390;34.904;2024-02-16T07:37:50;94924.41;;;15.10;54.87
85343;BME280;75760;31.390;34.904;2024-02-16T07:40:19;94925.97;;;14.81;56.36
85343;BME280;75760;31.390;34.904;2024-02-16T07:42:45;94938.75;;;14.72;56.15
85343;BME280;75760;31.390;34.904;2024-02-16T07:45:11;94936.34;;;14.74;56.15
85343;BME280;75760;31.390;34.904;2024-02-16T07:47:41;94938.69;;;14.52;56.68
85343;BME280;75760;31.390;34.904;2024-02-16T07:50:07;94944.84;;;14.87;57.18
85343;BME280;75760;31.390;34.904;2024-02-16T07:52:33;94942.00;;;14.61;56.98
85343;BME280;75760;31.390;34.904;2024-02-16T07:54:58;94955.03;;;14.98;57.09
85343;BME280;75760;31.390;34.904;2024-02-16T07:57:24;94952.88;;;15.02;57.05
85343;BME280;75760;31.390;34.904;2024-02-16T07:59:50;94955.31;;;15.55;55.56
85343;BME280;75760;31.390;34.904;2024-02-16T08:02:15;94961.59;;;15.92;55.15
85343;BME280;75760;31.390;34.904;2024-02-16T08:04:46;94960.38;;;15.93;54.66
85343;BME280;75760;31.390;34.904;2024-02-16T08:07:12;94951.22;;;15.25;55.53
85343;BME280;75760;31.390;34.904;2024-02-16T08:09:38;94961.91;;;15.19;55.17
85343;BME280;75760;31.390;34.904;2024-02-16T08:12:04;94969.72;;;15.02;56.43
85343;BME280;75760;31.390;34.904;2024-02-16T08:14:33;94968.25;;;15.36;55.22
85343;BME280;75760;31.390;34.904;2024-02-16T08:16:59;94962.53;;;15.89;53.93
85343;BME280;75760;31.390;34.904;2024-02-16T08:19:32;94969.72;;;15.37;55.09
85343;BME280;75760;31.390;34.904;2024-02-16T08:21:59;94967.09;;;15.43;54.60
85343;BME280;75760;31.390;34.904;2024-02-16T08:24:24;94966.88;;;14.91;55.74
85343;BME280;75760;31.390;34.904;2024-02-16T08:26:50;94966.13;;;14.91;55.47
85343;BME280;75760;31.390;34.904;2024-02-16T08:29:16;94964.22;;;15.26;55.33
85343;BME280;75760;31.390;34.904;2024-02-16T08:31:42;94970.00;;;15.04;55.72
85343;BME280;75760;31.390;34.904;2024-02-16T08:34:09;94964.13;;;15.41;54.58
85343;BME280;75760;31.390;34.904;2024-02-16T08:36:36;94960.09;;;14.61;56.58
85343;BME280;75760;31.390;34.904;2024-02-16T08:39:04;94960.97;;;14.13;58.45
85343;BME280;75760;31.390;34.904;2024-02-16T08:41:30;94966.03;;;13.97;59.20
85343;BME280;75760;31.390;34.904;2024-02-16T08:43:55;94971.09;;;13.80;60.39
85343;BME280;75760;31.390;34.904;2024-02-16T08:46:22;94968.84;;;14.17;59.55
85343;BME280;75760;31.390;34.904;2024-02-16T08:48:48;94963.31;;;14.35;59.11
85343;BME280;75760;31.390;34.904;2024-02-16T08:51:14;94962.50;;;15.08;57.64
85343;BME280;75760;31.390;34.904;2024-02-16T08:53:40;94957.41;;;15.66;55.88
85343;BME280;75760;31.390;34.904;2024-02-16T08:56:12;94956.06;;;15.20;56.20
85343;BME280;75760;31.390;34.904;2024-02-16T08:58:38;94959.38;;;14.95;56.59
85343;BME280;75760;31.390;34.904;2024-02-16T09:01:04;94941.72;;;14.74;57.52
85343;BME280;75760;31.390;34.904;2024-02-16T09:03:30;94951.44;;;15.41;55.59
85343;BME280;75760;31.390;34.904;2024-02-16T09:06:03;94946.81;;;16.08;53.09
85343;BME280;75760;31.390;34.904;2024-02-16T09:08:29;94942.91;;;16.09;52.85
85343;BME280;75760;31.390;34.904;2024-02-16T09:11:04;94941.75;;;16.16;52.75
85343;BME280;75760;31.390;34.904;2024-02-16T09:13:32;94933.97;;;15.51;54.01
85343;BME280;75760;31.390;34.904;2024-02-16T09:15:57;94936.47;;;15.00;55.30
85343;BME280;75760;31.390;34.904;2024-02-16T09:18:23;94939.91;;;15.00;55.96
85343;BME280;75760;31.390;34.904;2024-02-16T09:20:49;94928.59;;;15.72;54.00
85343;BME280;75760;31.390;34.904;2024-02-16T09:23:15;94934.63;;;15.06;55.14
85343;BME280;75760;31.390;34.904;2024-02-16T09:25:40;94938.84;;;14.77;56.00
85343;BME280;75760;31.390;34.904;2024-02-16T09:28:06;94931.22;;;14.41;56.72
85343;BME280;75760;31.390;34.904;2024-02-16T09:30:32;94931.38;;;14.37;57.60
85343;BME280;75760;31.390;34.904;2024-02-16T09:32:58;94931.84;;;14.36;57.28
85343;BME280;75760;31.390;34.904;2024-02-16T09:35:24;94931.75;;;14.16;57.58
85343;BME280;75760;31.390;34.904;2024-02-16T09:37:49;94933.94;;;13.88;58.31
85343;BME280;75760;31.390;34.904;2024-02-16T09:40:15;94926.69;;;14.47;56.36
85343;BME280;75760;31.390;34.904;2024-02-16T09:42:47;94926.34;;;14.74;55.86
85343;BME280;75760;31.390;34.904;2024-02-16T09:45:15;94927.25;;;14.51;55.55
85343;BME280;75760;31.390;34.904;2024-02-16T09:47:45;94917.72;;;14.85;54.97
85343;BME280;75760;31.390;34.904;2024-02-16T09:50:15;94916.94;;;15.19;55.01
85343;BME280;75760;31.390;34.904;2024-02-16T09:52:41;94919.63;;;15.40;53.68
85343;BME280;75760;31.390;34.904;2024-02-16T09:55:10;94915.53;;;15.85;52.55
85343;BME280;75760;31.390;34.904;2024-02-16T09:57:37;94920.34;;;15.55;51.71
85343;BME280;75760;31.390;34.904;2024-02-16T10:00:03;94918.78;;;15.08;53.46
85343;BME280;75760;31.390;34.904;2024-02-16T10:02:41;94915.50;;;14.83;53.44
85343;BME280;75760;31.390;34.904;2024-02-16T10:05:14;94913.72;;;14.60;53.64
85343;BME280;75760;31.390;34.904;2024-02-16T10:07:41;94928.69;;;14.52;53.89
85343;BME280;75760;31.390;34.904;2024-02-16T10:10:28;94923.25;;;14.46;54.80
85343;BME280;75760;31.390;34.904;2024-02-16T10:13:02;94930.44;;;14.70;57.52
85343;BME280;75760;31.390;34.904;2024-02-16T10:15:29;94924.34;;;14.25;56.38
85343;BME280;75760;31.390;34.904;2024-02-16T10:18:05;94931.81;;;13.92;56.93
85343;BME280;75760;31.390;34.904;2024-02-16T10:20:35;94927.53;;;13.85;57.39
85343;BME280;75760;31.390;34.904;2024-02-16T10:23:08;94922.88;;;14.09;56.82
85343;BME280;75760;31.390;34.904;2024-02-16T10:25:36;94917.50;;;14.24;55.83
85343;BME280;75760;31.390;34.904;2024-02-16T10:28:05;94919.25;;;14.42;56.13
85343;BME280;75760;31.390;34.904;2024-02-16T10:30:35;94924.34;;;14.69;55.66
85343;BME280;75760;31.390;34.904;2024-02-16T10:33:03;94917.22;;;15.21;54.90
85343;BME280;75760;31.390;34.904;2024-02-16T10:35:30;94908.88;;;15.40;53.47
85343;BME280;75760;31.390;34.904;2024-02-16T10:37:56;94911.25;;;15.52;53.10
85343;BME280;75760;31.390;34.904;2024-02-16T10:40:23;94903.47;;;15.54;52.48
85343;BME280;75760;31.390;34.904;2024-02-16T10:42:50;94912.47;;;15.72;52.23
85343;BME280;75760;31.390;34.904;2024-02-16T10:45:17;94897.88;;;15.58;52.40
85343;BME280;75760;31.390;34.904;2024-02-16T10:47:42;94906.00;;;15.43;51.80
85343;BME280;75760;31.390;34.904;2024-02-16T10:50:08;94898.84;;;15.55;51.85
85343;BME280;75760;31.390;34.904;2024-02-16T10:52:36;94892.69;;;15.14;52.49
85343;BME280;75760;31.390;34.904;2024-02-16T10:55:04;94890.97;;;14.76;54.00
85343;BME280;75760;31.390;34.904;2024-02-16T10:57:31;94889.25;;;14.58;53.39
85343;BME280;75760;31.390;34.904;2024-02-16T10:59:58;94901.28;;;14.33;53.71
85343;BME280;75760;31.390;34.904;2024-02-16T11:02:25;94906.00;;;14.24;54.25
85343;BME280;75760;31.390;34.904;2024-02-16T11:04:52;94905.84;;;14.13;54.61
85343;BME280;75760;31.390;34.904;2024-02-16T11:07:19;94904.00;;;14.19;54.02
85343;BME280;75760;31.390;34.904;2024-02-16T11:09:46;94893.31;;;14.68;54.14
85343;BME280;75760;31.390;34.904;2024-02-16T11:12:13;94899.03;;;14.76;53.71
85343;BME280;75760;31.390;34.904;2024-02-16T11:14:45;94901.69;;;15.11;52.86
85343;BME280;75760;31.390;34.904;2024-02-16T11:17:12;94900.75;;;15.75;51.44
85343;BME280;75760;31.390;34.904;2024-02-16T11:19:42;94897.94;;;15.64;48.86
85343;BME280;75760;31.390;34.904;2024-02-16T11:22:09;94901.84;;;15.42;50.11
85343;BME280;75760;31.390;34.904;2024-02-16T11:24:38;94896.59;;;15.53;49.47
85343;BME280;75760;31.390;34.904;2024-02-16T11:27:08;94894.56;;;15.69;49.50
85343;BME280;75760;31.390;34.904;2024-02-16T11:29:35;94902.09;;;15.44;48.72
85343;BME280;75760;31.390;34.904;2024-02-16T11:32:02;94899.41;;;15.24;50.14
85343;BME280;75760;31.390;34.904;2024-02-16T11:34:29;94901.88;;;15.48;50.49
85343;BME280;75760;31.390;34.904;2024-02-16T11:36:59;94907.06;;;15.31;50.73
85343;BME280;75760;31.390;34.904;2024-02-16T11:39:25;94907.19;;;15.02;51.61
85343;BME280;75760;31.390;34.904;2024-02-16T11:42:08;94899.94;;;14.88;52.06
85343;BME280;75760;31.390;34.904;2024-02-16T11:44:36;94911.53;;;14.79;52.17
85343;BME280;75760;31.390;34.904;2024-02-16T11:47:06;94916.91;;;14.64;52.29
85343;BME280;75760;31.390;34.904;2024-02-16T11:49:36;94922.13;;;14.53;53.30
85343;BME280;75760;31.390;34.904;2024-02-16T11:52:04;94917.84;;;14.76;53.09
85343;BME280;75760;31.390;34.904;2024-02-16T11:54:29;94916.69;;;14.82;53.00
85343;BME280;75760;31.390;34.904;2024-02-16T11:56:56;94911.88;;;14.87;53.13
85343;BME280;75760;31.390;34.904;2024-02-16T11:59:22;94913.78;;;15.01;52.56
85343;BME280;75760;31.390;34.904;2024-02-16T12:01:52;94917.75;;;15.05;51.68
85343;BME280;75760;31.390;34.904;2024-02-16T12:09:19;94917.13;;;14.96;49.80
85343;BME280;75760;31.390;34.904;2024-02-16T12:11:47;94908.88;;;14.99;50.34
85343;BME280;75760;31.390;34.904;2024-02-16T12:14:13;94916.91;;;14.79;50.03
85343;BME280;75760;31.390;34.904;2024-02-16T12:16:39;94918.56;;;14.76;51.21
85343;BME280;75760;31.390;34.904;2024-02-16T12:19:05;94926.50;;;14.85;53.48
85343;BME280;75760;31.390;34.904;2024-02-16T12:21:31;94918.47;;;14.85;54.54
85343;BME280;75760;31.390;34.904;2024-02-16T12:23:56;94910.88;;;14.84;54.45
85343;BME280;75760;31.390;34.904;2024-02-16T12:26:22;94917.03;;;14.70;54.74
85343;BME280;75760;31.390;34.904;2024-02-16T12:28:48;94928.41;;;14.79;54.50
85343;BME280;75760;31.390;34.904;2024-02-16T12:31:20;94921.94;;;14.92;54.59
85343;BME280;75760;31.390;34.904;2024-02-16T12:33:46;94923.66;;;15.09;54.56
85343;BME280;75760;31.390;34.904;2024-02-16T12:36:12;94933.69;;;15.09;54.99
85343;BME280;75760;31.390;34.904;2024-02-16T12:38:37;94925.34;;;15.07;54.78
85343;BME280;75760;31.390;34.904;2024-02-16T12:41:03;94924.19;;;15.13;55.29
85343;BME280;75760;31.390;34.904;2024-02-16T12:43:29;94934.06;;;15.02;55.94
85343;BME280;75760;31.390;34.904;2024-02-16T12:45:55;94939.66;;;14.98;55.65
85343;BME280;75760;31.390;34.904;2024-02-16T12:48:21;94944.84;;;14.87;56.73
85343;BME280;75760;31.390;34.904;2024-02-16T12:50:47;94945.72;;;14.78;57.03
85343;BME280;75760;31.390;34.904;2024-02-16T12:53:14;94947.50;;;14.52;58.10